sensor_id;sensor_type;location;lat;lon;timestamp;P1;durP1;ratioP1;P2;durP2;ratioP2
20397;SDS011;10358;49.590;11.030;2024-01-30T00:01:04;8.50;;;4.67;;
20397;SDS011;10358;49.590;11.030;2024-01-30T00:03:30;11.27;;;5.47;;
20397;SDS011;10358;49.590;11.030;2024-01-30T00:05:56;10.17;;;5.50;;
20397;SDS011;10358;49.590;11.030;2024-01-30T00:08:22;12.10;;;5.50;;
20397;SDS011;10358;49.590;11.030;2024-01-30T00:10:47;10.63;;;5.70;;
20397;SDS011;10358;49.590;11.030;2024-01-30T00:13:13;10.27;;;5.30;;
20397;SDS011;10358;49.590;11.030;2024-01-30T00:15:41;9.73;;;5.13;;
20397;SDS011;10358;49.590;11.030;2024-01-30T00:18:06;11.60;;;5.03;;
20397;SDS011;10358;49.590;11.030;2024-01-30T00:20:32;8.77;;;4.77;;
20397;SDS011;10358;49.590;11.030;2024-01-30T00:22:58;9.07;;;5.07;;
20397;SDS011;10358;49.590;11.030;2024-01-30T00:25:23;10.87;;;5.30;;
20397;SDS011;10358;49.590;11.030;2024-01-30T00:27:49;10.33;;;5.17;;
20397;SDS011;10358;49.590;11.030;2024-01-30T00:30:14;11.13;;;5.13;;
20397;SDS011;10358;49.590;11.030;2024-01-30T00:32:40;12.90;;;5.57;;
20397;SDS011;10358;49.590;11.030;2024-01-30T00:35:08;11.07;;;5.40;;
20397;SDS011;10358;49.590;11.030;2024-01-30T00:37:36;8.47;;;4.60;;
20397;SDS011;10358;49.590;11.030;2024-01-30T00:40:03;8.37;;;5.10;;
20397;SDS011;10358;49.590;11.030;2024-01-30T00:42:30;11.50;;;4.87;;
20397;SDS011;10358;49.590;11.030;2024-01-30T00:44:56;13.83;;;4.87;;
20397;SDS011;10358;49.590;11.030;2024-01-30T00:47:22;9.50;;;4.87;;
20397;SDS011;10358;49.590;11.030;2024-01-30T00:49:48;10.50;;;4.97;;
20397;SDS011;10358;49.590;11.030;2024-01-30T00:52:13;11.83;;;5.27;;
20397;SDS011;10358;49.590;11.030;2024-01-30T00:54:39;8.60;;;5.27;;
20397;SDS011;10358;49.590;11.030;2024-01-30T00:57:04;10.57;;;4.83;;
20397;SDS011;10358;49.590;11.030;2024-01-30T00:59:30;9.40;;;5.03;;
20397;SDS011;10358;49.590;11.030;2024-01-30T01:01:56;10.87;;;4.60;;
20397;SDS011;10358;49.590;11.030;2024-01-30T01:04:22;8.63;;;4.70;;
20397;SDS011;10358;49.590;11.030;2024-01-30T01:06:51;11.13;;;5.07;;
20397;SDS011;10358;49.590;11.030;2024-01-30T01:09:17;8.87;;;5.33;;
20397;SDS011;10358;49.590;11.030;2024-01-30T01:11:42;11.03;;;5.10;;
20397;SDS011;10358;49.590;11.030;2024-01-30T01:14:08;9.27;;;4.93;;
20397;SDS011;10358;49.590;11.030;2024-01-30T01:16:33;10.43;;;5.07;;
20397;SDS011;10358;49.590;11.030;2024-01-30T01:18:59;10.30;;;5.50;;
20397;SDS011;10358;49.590;11.030;2024-01-30T01:21:28;9.50;;;5.10;;
20397;SDS011;10358;49.590;11.030;2024-01-30T01:23:56;9.97;;;4.70;;
20397;SDS011;10358;49.590;11.030;2024-01-30T01:26:21;9.73;;;5.00;;
20397;SDS011;10358;49.590;11.030;2024-01-30T01:28:47;10.33;;;5.17;;
20397;SDS011;10358;49.590;11.030;2024-01-30T01:31:13;11.10;;;5.10;;
20397;SDS011;10358;49.590;11.030;2024-01-30T01:33:40;12.47;;;5.43;;
20397;SDS011;10358;49.590;11.030;2024-01-30T01:36:05;11.77;;;5.17;;
20397;SDS011;10358;49.590;11.030;2024-01-30T01:38:31;11.70;;;5.50;;
20397;SDS011;10358;49.590;11.030;2024-01-30T01:40:57;10.27;;;5.13;;
20397;SDS011;10358;49.590;11.030;2024-01-30T01:43:22;11.47;;;5.27;;
20397;SDS011;10358;49.590;11.030;2024-01-30T01:45:48;13.20;;;5.40;;
20397;SDS011;10358;49.590;11.030;2024-01-30T01:48:13;9.13;;;5.20;;
20397;SDS011;10358;49.590;11.030;2024-01-30T01:50:40;13.13;;;5.20;;
20397;SDS011;10358;49.590;11.030;2024-01-30T01:53:07;12.67;;;5.40;;
20397;SDS011;10358;49.590;11.030;2024-01-30T01:55:33;11.27;;;5.43;;
20397;SDS011;10358;49.590;11.030;2024-01-30T01:58:00;12.80;;;5.63;;
20397;SDS011;10358;49.590;11.030;2024-01-30T02:00:26;9.80;;;4.70;;
20397;SDS011;10358;49.590;11.030;2024-01-30T02:02:52;9.37;;;4.90;;
20397;SDS011;10358;49.590;11.030;2024-01-30T02:05:19;8.77;;;4.97;;
20397;SDS011;10358;49.590;11.030;2024-01-30T02:07:45;11.23;;;5.00;;
20397;SDS011;10358;49.590;11.030;2024-01-30T02:10:12;11.23;;;5.10;;
20397;SDS011;10358;49.590;11.030;2024-01-30T02:12:37;9.33;;;5.07;;
20397;SDS011;10358;49.590;11.030;2024-01-30T02:15:03;9.27;;;5.20;;
20397;SDS011;10358;49.590;11.030;2024-01-30T02:17:30;12.70;;;5.70;;
20397;SDS011;10358;49.590;11.030;2024-01-30T02:19:55;8.47;;;4.40;;
20397;SDS011;10358;49.590;11.030;2024-01-30T02:22:21;12.63;;;5.13;;
20397;SDS011;10358;49.590;11.030;2024-01-30T02:24:49;9.57;;;4.80;;
20397;SDS011;10358;49.590;11.030;2024-01-30T02:27:15;11.87;;;5.23;;
20397;SDS011;10358;49.590;11.030;2024-01-30T02:29:41;10.63;;;5.10;;
20397;SDS011;10358;49.590;11.030;2024-01-30T02:32:06;11.93;;;5.20;;
20397;SDS011;10358;49.590;11.030;2024-01-30T02:34:33;14.43;;;5.00;;
20397;SDS011;10358;49.590;11.030;2024-01-30T02:36:58;10.63;;;5.03;;
20397;SDS011;10358;49.590;11.030;2024-01-30T02:39:24;11.83;;;5.53;;
20397;SDS011;10358;49.590;11.030;2024-01-30T02:41:49;14.40;;;5.50;;
20397;SDS011;10358;49.590;11.030;2024-01-30T02:44:15;12.50;;;5.57;;
20397;SDS011;10358;49.590;11.030;2024-01-30T02:46:40;11.73;;;5.33;;
20397;SDS011;10358;49.590;11.030;2024-01-30T02:49:06;9.73;;;5.37;;
20397;SDS011;10358;49.590;11.030;2024-01-30T02:51:33;11.73;;;5.37;;
20397;SDS011;10358;49.590;11.030;2024-01-30T02:53:59;12.23;;;6.13;;
20397;SDS011;10358;49.590;11.030;2024-01-30T02:56:24;12.90;;;5.70;;
20397;SDS011;10358;49.590;11.030;2024-01-30T02:58:50;12.67;;;5.47;;
20397;SDS011;10358;49.590;11.030;2024-01-30T03:01:15;11.50;;;5.57;;
20397;SDS011;10358;49.590;11.030;2024-01-30T03:03:42;9.53;;;5.20;;
20397;SDS011;10358;49.590;11.030;2024-01-30T03:06:08;10.80;;;5.20;;
20397;SDS011;10358;49.590;11.030;2024-01-30T03:08:34;11.07;;;4.87;;
20397;SDS011;10358;49.590;11.030;2024-01-30T03:11:00;8.17;;;4.70;;
20397;SDS011;10358;49.590;11.030;2024-01-30T03:13:25;10.53;;;5.30;;
20397;SDS011;10358;49.590;11.030;2024-01-30T03:15:51;10.43;;;4.80;;
20397;SDS011;10358;49.590;11.030;2024-01-30T03:18:16;9.10;;;4.90;;
20397;SDS011;10358;49.590;11.030;2024-01-30T03:20:42;10.27;;;5.07;;
20397;SDS011;10358;49.590;11.030;2024-01-30T03:23:08;9.17;;;4.80;;
20397;SDS011;10358;49.590;11.030;2024-01-30T03:25:33;7.40;;;4.50;;
20397;SDS011;10358;49.590;11.030;2024-01-30T03:27:59;8.97;;;4.83;;
20397;SDS011;10358;49.590;11.030;2024-01-30T03:30:26;10.43;;;4.60;;
20397;SDS011;10358;49.590;11.030;2024-01-30T03:32:51;9.37;;;5.27;;
20397;SDS011;10358;49.590;11.030;2024-01-30T03:35:18;11.73;;;4.43;;
20397;SDS011;10358;49.590;11.030;2024-01-30T03:37:45;8.50;;;4.97;;
20397;SDS011;10358;49.590;11.030;2024-01-30T03:40:11;9.83;;;5.57;;
20397;SDS011;10358;49.590;11.030;2024-01-30T03:42:36;9.57;;;4.83;;
20397;SDS011;10358;49.590;11.030;2024-01-30T03:45:02;8.43;;;4.23;;
20397;SDS011;10358;49.590;11.030;2024-01-30T03:47:28;10.73;;;4.67;;
20397;SDS011;10358;49.590;11.030;2024-01-30T03:49:53;12.10;;;5.17;;
20397;SDS011;10358;49.590;11.030;2024-01-30T03:52:19;9.83;;;4.47;;
20397;SDS011;10358;49.590;11.030;2024-01-30T03:54:44;11.23;;;5.57;;
20397;SDS011;10358;49.590;11.030;2024-01-30T03:57:10;7.33;;;4.43;;
20397;SDS011;10358;49.590;11.030;2024-01-30T03:59:36;10.37;;;4.60;;
20397;SDS011;10358;49.590;11.030;2024-01-30T04:02:01;9.27;;;4.97;;
20397;SDS011;10358;49.590;11.030;2024-01-30T04:04:27;9.87;;;4.83;;
20397;SDS011;10358;49.590;11.030;2024-01-30T04:06:53;9.03;;;5.23;;
20397;SDS011;10358;49.590;11.030;2024-01-30T04:09:19;10.40;;;4.97;;
20397;SDS011;10358;49.590;11.030;2024-01-30T04:11:44;9.47;;;4.57;;
20397;SDS011;10358;49.590;11.030;2024-01-30T04:14:10;8.80;;;4.70;;
20397;SDS011;10358;49.590;11.030;2024-01-30T04:16:36;7.83;;;4.77;;
20397;SDS011;10358;49.590;11.030;2024-01-30T04:19:01;10.77;;;4.90;;
20397;SDS011;10358;49.590;11.030;2024-01-30T04:21:27;9.63;;;4.33;;
20397;SDS011;10358;49.590;11.030;2024-01-30T04:23:52;8.83;;;4.50;;
20397;SDS011;10358;49.590;11.030;2024-01-30T04:26:18;10.57;;;5.00;;
20397;SDS011;10358;49.590;11.030;2024-01-30T04:28:44;10.67;;;4.63;;
20397;SDS011;10358;49.590;11.030;2024-01-30T04:31:10;8.97;;;4.33;;
20397;SDS011;10358;49.590;11.030;2024-01-30T04:33:36;8.30;;;4.40;;
20397;SDS011;10358;49.590;11.030;2024-01-30T04:36:02;11.73;;;5.20;;
20397;SDS011;10358;49.590;11.030;2024-01-30T04:38:29;10.37;;;4.83;;
20397;SDS011;10358;49.590;11.030;2024-01-30T04:40:56;8.60;;;4.63;;
20397;SDS011;10358;49.590;11.030;2024-01-30T04:43:21;10.67;;;4.63;;
20397;SDS011;10358;49.590;11.030;2024-01-30T04:45:47;9.93;;;4.50;;
20397;SDS011;10358;49.590;11.030;2024-01-30T04:48:13;9.63;;;4.70;;
20397;SDS011;10358;49.590;11.030;2024-01-30T04:50:39;8.83;;;4.43;;
20397;SDS011;10358;49.590;11.030;2024-01-30T04:53:04;9.73;;;4.43;;
20397;SDS011;10358;49.590;11.030;2024-01-30T04:55:31;11.10;;;4.77;;
20397;SDS011;10358;49.590;11.030;2024-01-30T04:57:56;9.07;;;3.93;;
20397;SDS011;10358;49.590;11.030;2024-01-30T05:00:22;12.10;;;4.63;;
20397;SDS011;10358;49.590;11.030;2024-01-30T05:02:48;9.00;;;4.67;;
20397;SDS011;10358;49.590;11.030;2024-01-30T05:05:13;11.57;;;4.50;;
20397;SDS011;10358;49.590;11.030;2024-01-30T05:07:40;10.43;;;4.60;;
20397;SDS011;10358;49.590;11.030;2024-01-30T05:10:06;9.20;;;4.37;;
20397;SDS011;10358;49.590;11.030;2024-01-30T05:12:33;7.60;;;4.20;;
20397;SDS011;10358;49.590;11.030;2024-01-30T05:14:59;9.93;;;5.17;;
20397;SDS011;10358;49.590;11.030;2024-01-30T05:17:24;7.67;;;4.63;;
20397;SDS011;10358;49.590;11.030;2024-01-30T05:19:50;9.47;;;4.37;;
20397;SDS011;10358;49.590;11.030;2024-01-30T05:22:15;12.30;;;5.20;;
20397;SDS011;10358;49.590;11.030;2024-01-30T05:24:43;10.57;;;5.50;;
20397;SDS011;10358;49.590;11.030;2024-01-30T05:27:09;9.27;;;4.80;;
20397;SDS011;10358;49.590;11.030;2024-01-30T05:29:35;10.47;;;4.50;;
20397;SDS011;10358;49.590;11.030;2024-01-30T05:32:00;14.13;;;6.60;;
20397;SDS011;10358;49.590;11.030;2024-01-30T05:34:26;14.47;;;6.10;;
20397;SDS011;10358;49.590;11.030;2024-01-30T05:36:52;12.93;;;5.30;;
20397;SDS011;10358;49.590;11.030;2024-01-30T05:39:17;8.43;;;4.60;;
20397;SDS011;10358;49.590;11.030;2024-01-30T05:41:43;8.87;;;4.27;;
20397;SDS011;10358;49.590;11.030;2024-01-30T05:44:08;11.27;;;4.90;;
20397;SDS011;10358;49.590;11.030;2024-01-30T05:46:35;10.93;;;4.47;;
20397;SDS011;10358;49.590;11.030;2024-01-30T05:49:01;9.53;;;4.60;;
20397;SDS011;10358;49.590;11.030;2024-01-30T05:51:26;8.57;;;4.10;;
20397;SDS011;10358;49.590;11.030;2024-01-30T05:53:53;9.87;;;4.63;;
20397;SDS011;10358;49.590;11.030;2024-01-30T05:56:18;8.00;;;4.40;;
20397;SDS011;10358;49.590;11.030;2024-01-30T05:58:44;8.90;;;4.20;;
20397;SDS011;10358;49.590;11.030;2024-01-30T06:01:09;9.37;;;4.90;;
20397;SDS011;10358;49.590;11.030;2024-01-30T06:03:35;10.43;;;4.43;;
20397;SDS011;10358;49.590;11.030;2024-01-30T06:06:01;7.43;;;4.20;;
20397;SDS011;10358;49.590;11.030;2024-01-30T06:08:26;9.27;;;4.40;;
20397;SDS011;10358;49.590;11.030;2024-01-30T06:10:52;6.83;;;4.17;;
20397;SDS011;10358;49.590;11.030;2024-01-30T06:13:17;9.30;;;4.37;;
20397;SDS011;10358;49.590;11.030;2024-01-30T06:15:43;6.57;;;3.93;;
20397;SDS011;10358;49.590;11.030;2024-01-30T06:18:08;9.00;;;4.43;;
20397;SDS011;10358;49.590;11.030;2024-01-30T06:20:34;10.43;;;4.80;;
20397;SDS011;10358;49.590;11.030;2024-01-30T06:23:00;10.30;;;5.50;;
20397;SDS011;10358;49.590;11.030;2024-01-30T06:25:26;13.00;;;5.87;;
20397;SDS011;10358;49.590;11.030;2024-01-30T06:27:51;11.43;;;5.80;;
20397;SDS011;10358;49.590;11.030;2024-01-30T06:30:17;13.93;;;5.70;;
20397;SDS011;10358;49.590;11.030;2024-01-30T06:32:43;7.70;;;4.20;;
20397;SDS011;10358;49.590;11.030;2024-01-30T06:35:09;8.93;;;4.10;;
20397;SDS011;10358;49.590;11.030;2024-01-30T06:37:35;9.03;;;4.20;;
20397;SDS011;10358;49.590;11.030;2024-01-30T06:40:01;9.20;;;4.00;;
20397;SDS011;10358;49.590;11.030;2024-01-30T06:42:27;8.73;;;3.93;;
20397;SDS011;10358;49.590;11.030;2024-01-30T06:44:53;9.07;;;4.30;;
20397;SDS011;10358;49.590;11.030;2024-01-30T06:47:18;8.17;;;4.20;;
20397;SDS011;10358;49.590;11.030;2024-01-30T06:49:44;7.80;;;4.57;;
20397;SDS011;10358;49.590;11.030;2024-01-30T06:52:10;8.63;;;4.07;;
20397;SDS011;10358;49.590;11.030;2024-01-30T06:54:36;8.83;;;4.13;;
20397;SDS011;10358;49.590;11.030;2024-01-30T06:57:01;6.90;;;4.27;;
20397;SDS011;10358;49.590;11.030;2024-01-30T06:59:27;8.00;;;4.33;;
20397;SDS011;10358;49.590;11.030;2024-01-30T07:01:52;8.77;;;4.43;;
20397;SDS011;10358;49.590;11.030;2024-01-30T07:04:18;8.43;;;4.50;;
20397;SDS011;10358;49.590;11.030;2024-01-30T07:06:44;9.37;;;4.30;;
20397;SDS011;10358;49.590;11.030;2024-01-30T07:09:10;16.50;;;5.77;;
20397;SDS011;10358;49.590;11.030;2024-01-30T07:11:35;13.77;;;5.60;;
20397;SDS011;10358;49.590;11.030;2024-01-30T07:14:01;15.80;;;5.60;;
20397;SDS011;10358;49.590;11.030;2024-01-30T07:16:29;12.87;;;5.37;;
20397;SDS011;10358;49.590;11.030;2024-01-30T07:18:55;11.27;;;4.70;;
20397;SDS011;10358;49.590;11.030;2024-01-30T07:21:21;7.03;;;4.30;;
20397;SDS011;10358;49.590;11.030;2024-01-30T07:23:52;9.53;;;4.70;;
20397;SDS011;10358;49.590;11.030;2024-01-30T07:26:18;9.20;;;4.53;;
20397;SDS011;10358;49.590;11.030;2024-01-30T07:28:45;8.50;;;4.50;;
20397;SDS011;10358;49.590;11.030;2024-01-30T07:31:11;8.53;;;4.43;;
20397;SDS011;10358;49.590;11.030;2024-01-30T07:33:36;10.37;;;4.97;;
20397;SDS011;10358;49.590;11.030;2024-01-30T07:36:02;8.00;;;4.20;;
20397;SDS011;10358;49.590;11.030;2024-01-30T07:38:27;8.37;;;4.10;;
20397;SDS011;10358;49.590;11.030;2024-01-30T07:40:53;10.87;;;4.27;;
20397;SDS011;10358;49.590;11.030;2024-01-30T07:43:19;8.60;;;4.50;;
20397;SDS011;10358;49.590;11.030;2024-01-30T07:45:45;8.03;;;4.40;;
20397;SDS011;10358;49.590;11.030;2024-01-30T07:48:10;10.57;;;4.60;;
20397;SDS011;10358;49.590;11.030;2024-01-30T07:50:36;9.20;;;4.33;;
20397;SDS011;10358;49.590;11.030;2024-01-30T07:53:02;10.77;;;5.00;;
20397;SDS011;10358;49.590;11.030;2024-01-30T07:55:28;16.50;;;5.70;;
20397;SDS011;10358;49.590;11.030;2024-01-30T07:57:53;10.67;;;5.43;;
20397;SDS011;10358;49.590;11.030;2024-01-30T08:00:20;9.57;;;5.00;;
20397;SDS011;10358;49.590;11.030;2024-01-30T08:02:46;7.80;;;4.70;;
20397;SDS011;10358;49.590;11.030;2024-01-30T08:05:13;14.33;;;4.80;;
20397;SDS011;10358;49.590;11.030;2024-01-30T08:07:41;10.87;;;4.87;;
20397;SDS011;10358;49.590;11.030;2024-01-30T08:10:11;7.83;;;4.30;;
20397;SDS011;10358;49.590;11.030;2024-01-30T08:12:38;8.97;;;4.43;;
20397;SDS011;10358;49.590;11.030;2024-01-30T08:15:03;11.80;;;4.87;;
20397;SDS011;10358;49.590;11.030;2024-01-30T08:17:31;11.33;;;4.90;;
20397;SDS011;10358;49.590;11.030;2024-01-30T08:19:56;10.20;;;5.20;;
20397;SDS011;10358;49.590;11.030;2024-01-30T08:22:22;12.53;;;4.90;;
20397;SDS011;10358;49.590;11.030;2024-01-30T08:24:47;9.77;;;4.87;;
20397;SDS011;10358;49.590;11.030;2024-01-30T08:27:13;10.70;;;4.97;;
20397;SDS011;10358;49.590;11.030;2024-01-30T08:29:38;10.07;;;4.90;;
20397;SDS011;10358;49.590;11.030;2024-01-30T08:32:05;11.57;;;5.50;;
20397;SDS011;10358;49.590;11.030;2024-01-30T08:34:31;13.40;;;5.90;;
20397;SDS011;10358;49.590;11.030;2024-01-30T08:36:57;11.73;;;6.47;;
20397;SDS011;10358;49.590;11.030;2024-01-30T08:39:22;13.20;;;6.60;;
20397;SDS011;10358;49.590;11.030;2024-01-30T08:41:48;16.43;;;8.47;;
20397;SDS011;10358;49.590;11.030;2024-01-30T08:44:13;13.47;;;6.90;;
20397;SDS011;10358;49.590;11.030;2024-01-30T08:46:39;11.37;;;6.50;;
20397;SDS011;10358;49.590;11.030;2024-01-30T08:49:05;11.23;;;6.27;;
20397;SDS011;10358;49.590;11.030;2024-01-30T08:51:31;12.77;;;6.60;;
20397;SDS011;10358;49.590;11.030;2024-01-30T08:53:56;15.10;;;6.40;;
20397;SDS011;10358;49.590;11.030;2024-01-30T08:56:22;11.23;;;6.53;;
20397;SDS011;10358;49.590;11.030;2024-01-30T08:58:48;12.73;;;7.63;;
20397;SDS011;10358;49.590;11.030;2024-01-30T09:01:14;16.03;;;7.10;;
20397;SDS011;10358;49.590;11.030;2024-01-30T09:03:39;12.90;;;6.90;;
20397;SDS011;10358;49.590;11.030;2024-01-30T09:06:09;14.33;;;7.23;;
20397;SDS011;10358;49.590;11.030;2024-01-30T09:08:35;16.47;;;8.13;;
20397;SDS011;10358;49.590;11.030;2024-01-30T09:11:02;14.03;;;8.00;;
20397;SDS011;10358;49.590;11.030;2024-01-30T09:13:38;16.23;;;8.67;;
20397;SDS011;10358;49.590;11.030;2024-01-30T09:16:04;16.43;;;8.13;;
20397;SDS011;10358;49.590;11.030;2024-01-30T09:18:30;16.37;;;8.70;;
20397;SDS011;10358;49.590;11.030;2024-01-30T09:20:57;16.80;;;8.53;;
20397;SDS011;10358;49.590;11.030;2024-01-30T09:23:23;18.80;;;9.27;;
20397;SDS011;10358;49.590;11.030;2024-01-30T09:25:49;15.83;;;8.73;;
20397;SDS011;10358;49.590;11.030;2024-01-30T09:28:15;19.63;;;9.57;;
20397;SDS011;10358;49.590;11.030;2024-01-30T09:30:42;16.70;;;9.60;;
20397;SDS011;10358;49.590;11.030;2024-01-30T09:33:08;17.37;;;9.93;;
20397;SDS011;10358;49.590;11.030;2024-01-30T09:35:33;20.63;;;9.97;;
20397;SDS011;10358;49.590;11.030;2024-01-30T09:37:59;17.80;;;9.33;;
20397;SDS011;10358;49.590;11.030;2024-01-30T09:40:25;18.63;;;9.67;;
20397;SDS011;10358;49.590;11.030;2024-01-30T09:42:51;18.63;;;9.80;;
20397;SDS011;10358;49.590;11.030;2024-01-30T09:45:20;19.93;;;10.93;;
20397;SDS011;10358;49.590;11.030;2024-01-30T09:47:49;21.37;;;10.57;;
20397;SDS011;10358;49.590;11.030;2024-01-30T09:50:15;22.47;;;10.77;;
20397;SDS011;10358;49.590;11.030;2024-01-30T09:52:45;16.73;;;10.00;;
20397;SDS011;10358;49.590;11.030;2024-01-30T09:55:11;16.37;;;10.20;;
20397;SDS011;10358;49.590;11.030;2024-01-30T09:57:38;19.13;;;9.93;;
20397;SDS011;10358;49.590;11.030;2024-01-30T10:00:04;20.90;;;10.80;;
20397;SDS011;10358;49.590;11.030;2024-01-30T10:02:33;21.73;;;10.67;;
20397;SDS011;10358;49.590;11.030;2024-01-30T10:05:03;24.40;;;10.10;;
20397;SDS011;10358;49.590;11.030;2024-01-30T10:07:29;19.00;;;9.97;;
20397;SDS011;10358;49.590;11.030;2024-01-30T10:09:55;18.77;;;10.00;;
20397;SDS011;10358;49.590;11.030;2024-01-30T10:12:26;18.80;;;10.10;;
20397;SDS011;10358;49.590;11.030;2024-01-30T10:14:51;26.80;;;10.87;;
20397;SDS011;10358;49.590;11.030;2024-01-30T10:17:17;19.10;;;10.53;;
20397;SDS011;10358;49.590;11.030;2024-01-30T10:19:43;22.23;;;10.53;;
20397;SDS011;10358;49.590;11.030;2024-01-30T10:22:09;18.77;;;11.27;;
20397;SDS011;10358;49.590;11.030;2024-01-30T10:24:35;24.13;;;10.80;;
20397;SDS011;10358;49.590;11.030;2024-01-30T10:27:01;19.37;;;10.93;;
20397;SDS011;10358;49.590;11.030;2024-01-30T10:29:27;20.17;;;10.53;;
20397;SDS011;10358;49.590;11.030;2024-01-30T10:31:57;22.40;;;11.43;;
20397;SDS011;10358;49.590;11.030;2024-01-30T10:34:26;17.60;;;10.70;;
20397;SDS011;10358;49.590;11.030;2024-01-30T10:36:58;19.93;;;10.47;;
20397;SDS011;10358;49.590;11.030;2024-01-30T10:39:30;20.83;;;10.60;;
20397;SDS011;10358;49.590;11.030;2024-01-30T10:42:02;21.77;;;10.73;;
20397;SDS011;10358;49.590;11.030;2024-01-30T10:44:30;17.80;;;10.63;;
20397;SDS011;10358;49.590;11.030;2024-01-30T10:47:21;16.67;;;10.03;;
20397;SDS011;10358;49.590;11.030;2024-01-30T10:49:53;19.23;;;10.10;;
20397;SDS011;10358;49.590;11.030;2024-01-30T10:52:20;18.23;;;10.93;;
20397;SDS011;10358;49.590;11.030;2024-01-30T10:54:47;20.67;;;10.70;;
20397;SDS011;10358;49.590;11.030;2024-01-30T10:57:15;19.40;;;10.30;;
20397;SDS011;10358;49.590;11.030;2024-01-30T10:59:41;19.13;;;9.87;;
20397;SDS011;10358;49.590;11.030;2024-01-30T11:02:07;18.47;;;10.43;;
20397;SDS011;10358;49.590;11.030;2024-01-30T11:04:37;24.10;;;10.43;;
20397;SDS011;10358;49.590;11.030;2024-01-30T11:07:18;19.00;;;10.33;;
20397;SDS011;10358;49.590;11.030;2024-01-30T11:09:52;22.03;;;10.77;;
20397;SDS011;10358;49.590;11.030;2024-01-30T11:12:22;17.37;;;10.50;;
20397;SDS011;10358;49.590;11.030;2024-01-30T11:15:10;19.87;;;10.30;;
20397;SDS011;10358;49.590;11.030;2024-01-30T11:22:41;18.40;;;10.77;;
20397;SDS011;10358;49.590;11.030;2024-01-30T11:25:11;16.73;;;10.47;;
20397;SDS011;10358;49.590;11.030;2024-01-30T11:27:41;20.20;;;10.50;;
20397;SDS011;10358;49.590;11.030;2024-01-30T11:30:07;20.37;;;10.50;;
20397;SDS011;10358;49.590;11.030;2024-01-30T11:32:33;16.37;;;9.57;;
20397;SDS011;10358;49.590;11.030;2024-01-30T11:34:59;18.77;;;10.87;;
20397;SDS011;10358;49.590;11.030;2024-01-30T11:37:25;21.20;;;10.63;;
20397;SDS011;10358;49.590;11.030;2024-01-30T11:39:52;19.20;;;10.53;;
20397;SDS011;10358;49.590;11.030;2024-01-30T11:42:19;19.37;;;10.60;;
20397;SDS011;10358;49.590;11.030;2024-01-30T11:44:49;20.40;;;11.07;;
20397;SDS011;10358;49.590;11.030;2024-01-30T11:47:15;20.67;;;10.10;;
20397;SDS011;10358;49.590;11.030;2024-01-30T11:49:41;19.53;;;10.40;;
20397;SDS011;10358;49.590;11.030;2024-01-30T11:52:08;17.30;;;10.13;;
20397;SDS011;10358;49.590;11.030;2024-01-30T11:54:34;18.17;;;9.83;;
20397;SDS011;10358;49.590;11.030;2024-01-30T11:57:00;18.50;;;10.27;;
20397;SDS011;10358;49.590;11.030;2024-01-30T11:59:25;23.10;;;10.90;;
20397;SDS011;10358;49.590;11.030;2024-01-30T12:01:51;19.90;;;10.73;;
20397;SDS011;10358;49.590;11.030;2024-01-30T12:04:17;20.00;;;11.10;;
20397;SDS011;10358;49.590;11.030;2024-01-30T12:06:43;18.83;;;10.77;;
20397;SDS011;10358;49.590;11.030;2024-01-30T12:09:09;22.20;;;11.03;;
20397;SDS011;10358;49.590;11.030;2024-01-30T12:11:43;19.00;;;11.10;;
20397;SDS011;10358;49.590;11.030;2024-01-30T12:14:10;18.47;;;10.37;;
20397;SDS011;10358;49.590;11.030;2024-01-30T12:16:36;18.20;;;11.47;;
20397;SDS011;10358;49.590;11.030;2024-01-30T12:19:02;18.83;;;10.60;;
20397;SDS011;10358;49.590;11.030;2024-01-30T12:21:28;20.17;;;10.40;;
20397;SDS011;10358;49.590;11.030;2024-01-30T12:23:54;16.90;;;10.40;;
20397;SDS011;10358;49.590;11.030;2024-01-30T12:26:21;21.47;;;10.53;;
20397;SDS011;10358;49.590;11.030;2024-01-30T12:28:49;19.43;;;10.67;;
20397;SDS011;10358;49.590;11.030;2024-01-30T12:31:15;18.73;;;10.17;;
20397;SDS011;10358;49.590;11.030;2024-01-30T12:33:41;16.83;;;9.70;;
20397;SDS011;10358;49.590;11.030;2024-01-30T12:36:07;18.90;;;10.60;;
20397;SDS011;10358;49.590;11.030;2024-01-30T12:38:32;23.13;;;11.30;;
20397;SDS011;10358;49.590;11.030;2024-01-30T12:40:58;19.33;;;10.67;;
20397;SDS011;10358;49.590;11.030;2024-01-30T12:43:24;17.60;;;10.20;;
20397;SDS011;10358;49.590;11.030;2024-01-30T12:45:50;18.63;;;10.33;;
20397;SDS011;10358;49.590;11.030;2024-01-30T12:48:17;19.17;;;10.60;;
20397;SDS011;10358;49.590;11.030;2024-01-30T12:50:43;19.00;;;10.87;;
20397;SDS011;10358;49.590;11.030;2024-01-30T12:53:09;20.13;;;10.13;;
20397;SDS011;10358;49.590;11.030;2024-01-30T12:55:34;18.13;;;10.57;;
20397;SDS011;10358;49.590;11.030;2024-01-30T12:58:00;23.00;;;11.30;;
20397;SDS011;10358;49.590;11.030;2024-01-30T13:00:26;21.53;;;10.60;;
20397;SDS011;10358;49.590;11.030;2024-01-30T13:02:52;19.53;;;10.43;;
20397;SDS011;10358;49.590;11.030;2024-01-30T13:05:17;22.43;;;10.50;;
20397;SDS011;10358;49.590;11.030;2024-01-30T13:07:43;20.13;;;10.93;;
20397;SDS011;10358;49.590;11.030;2024-01-30T13:10:08;21.57;;;10.10;;
20397;SDS011;10358;49.590;11.030;2024-01-30T13:12:34;20.37;;;10.93;;
20397;SDS011;10358;49.590;11.030;2024-01-30T13:15:00;22.17;;;10.33;;
20397;SDS011;10358;49.590;11.030;2024-01-30T13:17:27;16.07;;;10.40;;
20397;SDS011;10358;49.590;11.030;2024-01-30T13:19:53;20.80;;;10.43;;
20397;SDS011;10358;49.590;11.030;2024-01-30T13:22:19;18.47;;;10.40;;
20397;SDS011;10358;49.590;11.030;2024-01-30T13:24:48;16.50;;;9.80;;
20397;SDS011;10358;49.590;11.030;2024-01-30T13:27:15;19.80;;;10.13;;
20397;SDS011;10358;49.590;11.030;2024-01-30T13:29:40;18.13;;;11.00;;
20397;SDS011;10358;49.590;11.030;2024-01-30T13:32:06;18.03;;;10.23;;
20397;SDS011;10358;49.590;11.030;2024-01-30T13:34:31;18.03;;;10.20;;
20397;SDS011;10358;49.590;11.030;2024-01-30T13:36:57;20.57;;;9.93;;
20397;SDS011;10358;49.590;11.030;2024-01-30T13:39:23;24.50;;;9.87;;
20397;SDS011;10358;49.590;11.030;2024-01-30T13:41:49;17.43;;;9.77;;
20397;SDS011;10358;49.590;11.030;2024-01-30T13:44:15;18.70;;;10.20;;
20397;SDS011;10358;49.590;11.030;2024-01-30T13:46:42;17.80;;;9.70;;
20397;SDS011;10358;49.590;11.030;2024-01-30T13:49:08;17.77;;;10.07;;
20397;SDS011;10358;49.590;11.030;2024-01-30T13:51:33;19.57;;;9.90;;
20397;SDS011;10358;49.590;11.030;2024-01-30T13:53:59;16.10;;;8.87;;
20397;SDS011;10358;49.590;11.030;2024-01-30T13:56:24;19.03;;;9.73;;
20397;SDS011;10358;49.590;11.030;2024-01-30T13:58:51;18.73;;;9.87;;
20397;SDS011;10358;49.590;11.030;2024-01-30T14:01:17;21.47;;;10.03;;
20397;SDS011;10358;49.590;11.030;2024-01-30T14:03:43;19.20;;;10.07;;
20397;SDS011;10358;49.590;11.030;2024-01-30T14:06:09;19.03;;;9.33;;
20397;SDS011;10358;49.590;11.030;2024-01-30T14:08:35;23.47;;;10.17;;
20397;SDS011;10358;49.590;11.030;2024-01-30T14:11:01;18.00;;;10.20;;
20397;SDS011;10358;49.590;11.030;2024-01-30T14:13:26;18.03;;;9.93;;
20397;SDS011;10358;49.590;11.030;2024-01-30T14:15:52;16.43;;;10.00;;
20397;SDS011;10358;49.590;11.030;2024-01-30T14:18:18;19.73;;;9.83;;
20397;SDS011;10358;49.590;11.030;2024-01-30T14:20:43;17.30;;;10.40;;